sensor_id;sensor_type;location;lat;lon;timestamp;temperature;humidity
3037;DHT22;1528;52.550;13.408;2024-02-23T00:01:48;11.60;53.90
3037;DHT22;1528;52.550;13.408;2024-02-23T00:04:35;11.60;54.00
3037;DHT22;1528;52.550;13.408;2024-02-23T00:07:20;11.60;53.80
3037;DHT22;1528;52.550;13.408;2024-02-23T00:10:07;11.60;53.70
3037;DHT22;1528;52.550;13.408;2024-02-23T00:12:52;11.60;53.80
3037;DHT22;1528;52.550;13.408;2024-02-23T00:15:38;11.60;53.80
3037;DHT22;1528;52.550;13.408;2024-02-23T00:18:23;11.60;54.30
3037;DHT22;1528;52.550;13.408;2024-02-23T00:21:11;11.60;53.50
3037;DHT22;1528;52.550;13.408;2024-02-23T00:23:56;11.70;53.10
3037;DHT22;1528;52.550;13.408;2024-02-23T00:26:42;11.70;53.00
3037;DHT22;1528;52.550;13.408;2024-02-23T00:29:27;11.80;52.60
3037;DHT22;1528;52.550;13.408;2024-02-23T00:32:13;11.80;52.60
3037;DHT22;1528;52.550;13.408;2024-02-23T00:34:58;11.80;52.50
3037;DHT22;1528;52.550;13.408;2024-02-23T00:37:45;11.80;52.20
3037;DHT22;1528;52.550;13.408;2024-02-23T00:40:31;12.00;52.00
3037;DHT22;1528;52.550;13.408;2024-02-23T00:43:18;11.80;51.70
3037;DHT22;1528;52.550;13.408;2024-02-23T00:46:04;11.80;51.80
3037;DHT22;1528;52.550;13.408;2024-02-23T00:48:50;11.70;51.80
3037;DHT22;1528;52.550;13.408;2024-02-23T00:51:35;11.80;51.60
3037;DHT22;1528;52.550;13.408;2024-02-23T00:54:22;11.70;51.40
3037;DHT22;1528;52.550;13.408;2024-02-23T00:57:08;11.80;51.40
3037;DHT22;1528;52.550;13.408;2024-02-23T00:59:53;11.70;51.30
3037;DHT22;1528;52.550;13.408;2024-02-23T01:02:39;11.70;51.30
3037;DHT22;1528;52.550;13.408;2024-02-23T01:05:25;11.70;51.10
3037;DHT22;1528;52.550;13.408;2024-02-23T01:08:11;11.70;51.30
3037;DHT22;1528;52.550;13.408;2024-02-23T01:10:58;11.70;50.80
3037;DHT22;1528;52.550;13.408;2024-02-23T01:13:43;11.70;50.60
3037;DHT22;1528;52.550;13.408;2024-02-23T01:16:29;11.80;50.70
3037;DHT22;1528;52.550;13.408;2024-02-23T01:19:14;11.80;50.60
3037;DHT22;1528;52.550;13.408;2024-02-23T01:22:00;12.00;50.20
3037;DHT22;1528;52.550;13.408;2024-02-23T01:24:47;11.80;49.80
3037;DHT22;1528;52.550;13.408;2024-02-23T01:27:34;11.80;49.80
3037;DHT22;1528;52.550;13.408;2024-02-23T01:30:19;11.80;49.20
3037;DHT22;1528;52.550;13.408;2024-02-23T01:33:05;11.90;48.30
3037;DHT22;1528;52.550;13.408;2024-02-23T01:35:50;11.90;48.10
3037;DHT22;1528;52.550;13.408;2024-02-23T01:38:36;12.00;47.50
3037;DHT22;1528;52.550;13.408;2024-02-23T01:41:22;12.00;46.90
3037;DHT22;1528;52.550;13.408;2024-02-23T01:44:09;12.00;46.70
3037;DHT22;1528;52.550;13.408;2024-02-23T01:46:54;12.00;46.50
3037;DHT22;1528;52.550;13.408;2024-02-23T01:49:41;12.00;46.30
3037;DHT22;1528;52.550;13.408;2024-02-23T01:52:26;12.00;45.80
3037;DHT22;1528;52.550;13.408;2024-02-23T01:55:12;12.00;44.90
3037;DHT22;1528;52.550;13.408;2024-02-23T01:57:58;12.10;44.40
3037;DHT22;1528;52.550;13.408;2024-02-23T02:00:45;12.10;43.60
3037;DHT22;1528;52.550;13.408;2024-02-23T02:03:32;12.10;41.80
3037;DHT22;1528;52.550;13.408;2024-02-23T02:06:18;12.10;41.40
3037;DHT22;1528;52.550;13.408;2024-02-23T02:09:03;12.10;40.80
3037;DHT22;1528;52.550;13.408;2024-02-23T02:11:50;12.20;38.20
3037;DHT22;1528;52.550;13.408;2024-02-23T02:14:35;12.20;37.00
3037;DHT22;1528;52.550;13.408;2024-02-23T02:17:22;12.20;35.60
3037;DHT22;1528;52.550;13.408;2024-02-23T02:20:11;12.20;34.60
3037;DHT22;1528;52.550;13.408;2024-02-23T02:22:57;12.10;33.40
3037;DHT22;1528;52.550;13.408;2024-02-23T02:25:43;12.00;32.10
3037;DHT22;1528;52.550;13.408;2024-02-23T02:28:28;12.00;31.40
3037;DHT22;1528;52.550;13.408;2024-02-23T02:31:14;12.00;31.10
3037;DHT22;1528;52.550;13.408;2024-02-23T02:34:01;12.00;31.00
3037;DHT22;1528;52.550;13.408;2024-02-23T02:36:46;11.90;30.90
3037;DHT22;1528;52.550;13.408;2024-02-23T02:39:32;11.90;29.80
3037;DHT22;1528;52.550;13.408;2024-02-23T02:42:18;11.90;29.50
3037;DHT22;1528;52.550;13.408;2024-02-23T02:45:04;11.80;28.50
3037;DHT22;1528;52.550;13.408;2024-02-23T02:47:49;11.80;28.00
3037;DHT22;1528;52.550;13.408;2024-02-23T02:50:36;11.70;25.80
3037;DHT22;1528;52.550;13.408;2024-02-23T02:53:22;11.60;25.90
3037;DHT22;1528;52.550;13.408;2024-02-23T02:56:07;11.60;26.20
3037;DHT22;1528;52.550;13.408;2024-02-23T02:58:53;11.50;25.80
3037;DHT22;1528;52.550;13.408;2024-02-23T03:01:39;11.40;25.90
3037;DHT22;1528;52.550;13.408;2024-02-23T03:04:25;11.40;26.20
3037;DHT22;1528;52.550;13.408;2024-02-23T03:07:12;11.30;26.40
3037;DHT22;1528;52.550;13.408;2024-02-23T03:09:57;11.30;25.80
3037;DHT22;1528;52.550;13.408;2024-02-23T03:12:43;11.20;26.20
3037;DHT22;1528;52.550;13.408;2024-02-23T03:15:29;11.20;26.40
3037;DHT22;1528;52.550;13.408;2024-02-23T03:18:14;11.20;26.10
3037;DHT22;1528;52.550;13.408;2024-02-23T03:21:00;11.10;26.20
3037;DHT22;1528;52.550;13.408;2024-02-23T03:23:47;11.10;25.60
3037;DHT22;1528;52.550;13.408;2024-02-23T03:26:32;11.10;25.60
3037;DHT22;1528;52.550;13.408;2024-02-23T03:29:18;11.10;25.80
3037;DHT22;1528;52.550;13.408;2024-02-23T03:32:04;11.00;25.80
3037;DHT22;1528;52.550;13.408;2024-02-23T03:34:50;11.00;25.20
3037;DHT22;1528;52.550;13.408;2024-02-23T03:37:36;10.90;25.60
3037;DHT22;1528;52.550;13.408;2024-02-23T03:40:23;10.80;25.10
3037;DHT22;1528;52.550;13.408;2024-02-23T03:43:08;10.80;25.00
3037;DHT22;1528;52.550;13.408;2024-02-23T03:45:54;10.80;24.80
3037;DHT22;1528;52.550;13.408;2024-02-23T03:48:40;10.80;24.80
3037;DHT22;1528;52.550;13.408;2024-02-23T03:51:25;10.70;24.60
3037;DHT22;1528;52.550;13.408;2024-02-23T03:54:11;10.70;24.40
3037;DHT22;1528;52.550;13.408;2024-02-23T03:56:58;10.70;24.30
3037;DHT22;1528;52.550;13.408;2024-02-23T03:59:51;10.70;24.30
3037;DHT22;1528;52.550;13.408;2024-02-23T04:02:38;10.60;24.30
3037;DHT22;1528;52.550;13.408;2024-02-23T04:05:24;10.60;24.50
3037;DHT22;1528;52.550;13.408;2024-02-23T04:08:09;10.60;24.80
3037;DHT22;1528;52.550;13.408;2024-02-23T04:10:55;10.60;24.70
3037;DHT22;1528;52.550;13.408;2024-02-23T04:13:42;10.60;25.40
3037;DHT22;1528;52.550;13.408;2024-02-23T04:16:28;10.60;24.50
3037;DHT22;1528;52.550;13.408;2024-02-23T04:19:13;10.60;24.50
3037;DHT22;1528;52.550;13.408;2024-02-23T04:21:59;10.50;24.40
3037;DHT22;1528;52.550;13.408;2024-02-23T04:24:44;10.50;25.40
3037;DHT22;1528;52.550;13.408;2024-02-23T04:27:30;10.50;24.80
3037;DHT22;1528;52.550;13.408;2024-02-23T04:30:17;10.50;25.20
3037;DHT22;1528;52.550;13.408;2024-02-23T04:33:03;10.50;25.20
3037;DHT22;1528;52.550;13.408;2024-02-23T04:35:48;10.50;25.40
3037;DHT22;1528;52.550;13.408;2024-02-23T04:38:34;10.50;25.10
3037;DHT22;1528;52.550;13.408;2024-02-23T04:41:20;10.60;25.30
3037;DHT22;1528;52.550;13.408;2024-02-23T04:44:06;10.40;25.00
3037;DHT22;1528;52.550;13.408;2024-02-23T04:46:53;10.30;24.30
3037;DHT22;1528;52.550;13.408;2024-02-23T04:49:39;10.30;24.20
3037;DHT22;1528;52.550;13.408;2024-02-23T04:52:24;10.30;23.80
3037;DHT22;1528;52.550;13.408;2024-02-23T04:55:10;10.30;23.60
3037;DHT22;1528;52.550;13.408;2024-02-23T04:57:56;10.30;23.90
3037;DHT22;1528;52.550;13.408;2024-02-23T05:00:42;10.30;24.00
3037;DHT22;1528;52.550;13.408;2024-02-23T05:03:29;10.30;24.00
3037;DHT22;1528;52.550;13.408;2024-02-23T05:06:15;10.20;24.30
3037;DHT22;1528;52.550;13.408;2024-02-23T05:09:00;10.20;24.30
3037;DHT22;1528;52.550;13.408;2024-02-23T05:11:46;10.20;23.80
3037;DHT22;1528;52.550;13.408;2024-02-23T05:14:32;10.20;24.00
3037;DHT22;1528;52.550;13.408;2024-02-23T05:17:18;10.20;23.80
3037;DHT22;1528;52.550;13.408;2024-02-23T05:20:06;10.20;24.30
3037;DHT22;1528;52.550;13.408;2024-02-23T05:22:54;10.20;24.60
3037;DHT22;1528;52.550;13.408;2024-02-23T05:25:40;10.20;23.80
3037;DHT22;1528;52.550;13.408;2024-02-23T05:28:26;10.10;24.40
3037;DHT22;1528;52.550;13.408;2024-02-23T05:31:12;10.00;24.10
3037;DHT22;1528;52.550;13.408;2024-02-23T05:33:57;10.00;24.00
3037;DHT22;1528;52.550;13.408;2024-02-23T05:36:45;9.90;24.50
3037;DHT22;1528;52.550;13.408;2024-02-23T05:39:30;9.90;24.60
3037;DHT22;1528;52.550;13.408;2024-02-23T05:42:16;9.80;25.00
3037;DHT22;1528;52.550;13.408;2024-02-23T05:45:02;9.80;24.80
3037;DHT22;1528;52.550;13.408;2024-02-23T05:47:48;9.70;24.80
3037;DHT22;1528;52.550;13.408;2024-02-23T05:50:34;9.60;24.40
3037;DHT22;1528;52.550;13.408;2024-02-23T05:53:21;9.50;24.60
3037;DHT22;1528;52.550;13.408;2024-02-23T05:56:07;9.40;25.30
3037;DHT22;1528;52.550;13.408;2024-02-23T05:58:53;9.40;25.50
3037;DHT22;1528;52.550;13.408;2024-02-23T06:01:39;9.30;25.00
3037;DHT22;1528;52.550;13.408;2024-02-23T06:04:25;9.20;25.90
3037;DHT22;1528;52.550;13.408;2024-02-23T06:07:11;9.10;24.80
3037;DHT22;1528;52.550;13.408;2024-02-23T06:09:58;9.10;24.80
3037;DHT22;1528;52.550;13.408;2024-02-23T06:12:43;9.00;25.00
3037;DHT22;1528;52.550;13.408;2024-02-23T06:15:29;9.00;25.40
3037;DHT22;1528;52.550;13.408;2024-02-23T06:18:15;9.00;25.00
3037;DHT22;1528;52.550;13.408;2024-02-23T06:21:00;9.00;25.80
3037;DHT22;1528;52.550;13.408;2024-02-23T06:23:46;9.00;25.40
3037;DHT22;1528;52.550;13.408;2024-02-23T06:26:33;9.20;25.90
3037;DHT22;1528;52.550;13.408;2024-02-23T06:29:18;9.00;25.30
3037;DHT22;1528;52.550;13.408;2024-02-23T06:32:05;9.00;25.50
3037;DHT22;1528;52.550;13.408;2024-02-23T06:34:50;9.00;25.50
3037;DHT22;1528;52.550;13.408;2024-02-23T06:37:36;8.90;25.30
3037;DHT22;1528;52.550;13.408;2024-02-23T06:40:22;8.90;25.30
3037;DHT22;1528;52.550;13.408;2024-02-23T06:43:09;8.90;25.50
3037;DHT22;1528;52.550;13.408;2024-02-23T06:45:54;8.90;25.50
3037;DHT22;1528;52.550;13.408;2024-02-23T06:48:40;8.90;26.40
3037;DHT22;1528;52.550;13.408;2024-02-23T06:51:26;9.00;25.70
3037;DHT22;1528;52.550;13.408;2024-02-23T06:54:11;9.10;25.70
3037;DHT22;1528;52.550;13.408;2024-02-23T06:57:00;9.10;25.40
3037;DHT22;1528;52.550;13.408;2024-02-23T06:59:55;9.10;25.10
3037;DHT22;1528;52.550;13.408;2024-02-23T07:02:41;9.20;25.10
3037;DHT22;1528;52.550;13.408;2024-02-23T07:05:26;9.20;25.20
3037;DHT22;1528;52.550;13.408;2024-02-23T07:08:12;9.20;24.80
3037;DHT22;1528;52.550;13.408;2024-02-23T07:10:58;9.20;24.60
3037;DHT22;1528;52.550;13.408;2024-02-23T07:13:44;9.20;24.70
3037;DHT22;1528;52.550;13.408;2024-02-23T07:16:31;9.30;24.60
3037;DHT22;1528;52.550;13.408;2024-02-23T07:19:17;9.30;24.40
3037;DHT22;1528;52.550;13.408;2024-02-23T07:22:04;9.30;24.00
3037;DHT22;1528;52.550;13.408;2024-02-23T07:24:50;9.40;24.00
3037;DHT22;1528;52.550;13.408;2024-02-23T07:27:35;9.40;23.90
3037;DHT22;1528;52.550;13.408;2024-02-23T07:30:21;9.40;23.90
3037;DHT22;1528;52.550;13.408;2024-02-23T07:33:08;9.40;23.50
3037;DHT22;1528;52.550;13.408;2024-02-23T07:35:53;9.50;24.00
3037;DHT22;1528;52.550;13.408;2024-02-23T07:38:39;9.50;24.00
3037;DHT22;1528;52.550;13.408;2024-02-23T07:41:25;9.50;24.20
3037;DHT22;1528;52.550;13.408;2024-02-23T07:44:10;9.50;23.90
3037;DHT22;1528;52.550;13.408;2024-02-23T07:46:56;9.50;23.60
3037;DHT22;1528;52.550;13.408;2024-02-23T07:49:44;9.50;23.80
3037;DHT22;1528;52.550;13.408;2024-02-23T07:52:30;9.50;24.00
3037;DHT22;1528;52.550;13.408;2024-02-23T07:55:15;9.50;23.70
3037;DHT22;1528;52.550;13.408;2024-02-23T07:58:01;9.50;23.60
3037;DHT22;1528;52.550;13.408;2024-02-23T08:00:47;9.50;23.50
3037;DHT22;1528;52.550;13.408;2024-02-23T08:03:33;9.50;23.50
3037;DHT22;1528;52.550;13.408;2024-02-23T08:06:20;9.50;23.50
3037;DHT22;1528;52.550;13.408;2024-02-23T08:09:05;9.50;23.50
3037;DHT22;1528;52.550;13.408;2024-02-23T08:11:51;9.60;23.60
3037;DHT22;1528;52.550;13.408;2024-02-23T08:14:37;9.60;23.90
3037;DHT22;1528;52.550;13.408;2024-02-23T08:17:23;9.70;23.90
3037;DHT22;1528;52.550;13.408;2024-02-23T08:20:10;9.90;24.00
3037;DHT22;1528;52.550;13.408;2024-02-23T08:22:57;10.00;22.80
3037;DHT22;1528;52.550;13.408;2024-02-23T08:25:42;10.10;22.90
3037;DHT22;1528;52.550;13.408;2024-02-23T08:28:28;10.20;23.00
3037;DHT22;1528;52.550;13.408;2024-02-23T08:31:14;10.20;22.90
3037;DHT22;1528;52.550;13.408;2024-02-23T08:34:00;10.20;23.10
3037;DHT22;1528;52.550;13.408;2024-02-23T08:36:46;10.20;22.90
3037;DHT22;1528;52.550;13.408;2024-02-23T08:39:33;10.20;22.70
3037;DHT22;1528;52.550;13.408;2024-02-23T08:42:20;10.20;22.90
3037;DHT22;1528;52.550;13.408;2024-02-23T08:45:07;10.20;22.80
3037;DHT22;1528;52.550;13.408;2024-02-23T08:47:54;10.20;22.10
3037;DHT22;1528;52.550;13.408;2024-02-23T08:50:40;10.30;22.80
3037;DHT22;1528;52.550;13.408;2024-02-23T08:53:25;10.30;22.20
3037;DHT22;1528;52.550;13.408;2024-02-23T08:56:12;10.40;22.20
3037;DHT22;1528;52.550;13.408;2024-02-23T08:59:00;10.40;22.10
3037;DHT22;1528;52.550;13.408;2024-02-23T09:01:45;10.40;22.00
3037;DHT22;1528;52.550;13.408;2024-02-23T09:04:31;10.40;21.30
3037;DHT22;1528;52.550;13.408;2024-02-23T09:07:17;10.40;21.30
3037;DHT22;1528;52.550;13.408;2024-02-23T09:10:04;10.40;20.50
3037;DHT22;1528;52.550;13.408;2024-02-23T09:12:51;10.40;21.00
3037;DHT22;1528;52.550;13.408;2024-02-23T09:15:36;10.40;20.90
3037;DHT22;1528;52.550;13.408;2024-02-23T09:18:22;10.50;20.50
3037;DHT22;1528;52.550;13.408;2024-02-23T09:21:08;10.60;20.20
3037;DHT22;1528;52.550;13.408;2024-02-23T09:23:53;10.80;20.20
3037;DHT22;1528;52.550;13.408;2024-02-23T09:26:39;11.00;19.90
3037;DHT22;1528;52.550;13.408;2024-02-23T09:29:26;11.30;19.20
3037;DHT22;1528;52.550;13.408;2024-02-23T09:32:12;11.70;18.80
3037;DHT22;1528;52.550;13.408;2024-02-23T09:34:58;11.90;18.40
3037;DHT22;1528;52.550;13.408;2024-02-23T09:37:43;12.00;17.50
3037;DHT22;1528;52.550;13.408;2024-02-23T09:40:29;12.10;16.60
3037;DHT22;1528;52.550;13.408;2024-02-23T09:43:14;12.20;17.00
3037;DHT22;1528;52.550;13.408;2024-02-23T09:46:02;12.20;16.50
3037;DHT22;1528;52.550;13.408;2024-02-23T09:48:48;12.10;15.80
3037;DHT22;1528;52.550;13.408;2024-02-23T09:51:35;12.10;15.20
3037;DHT22;1528;52.550;13.408;2024-02-23T09:54:21;12.00;14.70
3037;DHT22;1528;52.550;13.408;2024-02-23T09:57:07;11.80;15.70
3037;DHT22;1528;52.550;13.408;2024-02-23T09:59:53;11.80;15.60
3037;DHT22;1528;52.550;13.408;2024-02-23T10:02:41;11.80;16.10
3037;DHT22;1528;52.550;13.408;2024-02-23T10:05:30;11.80;15.00
3037;DHT22;1528;52.550;13.408;2024-02-23T10:08:16;11.70;15.20
3037;DHT22;1528;52.550;13.408;2024-02-23T10:11:01;11.60;15.00
3037;DHT22;1528;52.550;13.408;2024-02-23T10:13:47;11.60;15.50
3037;DHT22;1528;52.550;13.408;2024-02-23T10:16:33;11.70;15.90
3037;DHT22;1528;52.550;13.408;2024-02-23T10:19:20;11.90;16.40
3037;DHT22;1528;52.550;13.408;2024-02-23T10:22:06;12.10;16.70
3037;DHT22;1528;52.550;13.408;2024-02-23T10:24:52;12.10;17.00
3037;DHT22;1528;52.550;13.408;2024-02-23T10:27:38;12.10;16.40
3037;DHT22;1528;52.550;13.408;2024-02-23T10:30:23;12.10;16.50
3037;DHT22;1528;52.550;13.408;2024-02-23T10:33:10;12.00;17.00
3037;DHT22;1528;52.550;13.408;2024-02-23T10:35:58;11.90;16.30
3037;DHT22;1528;52.550;13.408;2024-02-23T10:38:46;11.90;16.70
3037;DHT22;1528;52.550;13.408;2024-02-23T10:41:34;11.90;16.20
3037;DHT22;1528;52.550;13.408;2024-02-23T10:44:21;12.10;16.40
3037;DHT22;1528;52.550;13.408;2024-02-23T10:47:07;12.30;16.40
3037;DHT22;1528;52.550;13.408;2024-02-23T10:49:53;12.30;16.20
3037;DHT22;1528;52.550;13.408;2024-02-23T10:52:40;12.40;16.10
3037;DHT22;1528;52.550;13.408;2024-02-23T10:55:27;12.40;14.40
3037;DHT22;1528;52.550;13.408;2024-02-23T10:58:13;12.30;14.70
3037;DHT22;1528;52.550;13.408;2024-02-23T11:01:01;12.20;14.50
3037;DHT22;1528;52.550;13.408;2024-02-23T11:03:48;12.30;14.60
3037;DHT22;1528;52.550;13.408;2024-02-23T11:06:34;12.20;13.80
3037;DHT22;1528;52.550;13.408;2024-02-23T11:09:23;12.10;13.90
3037;DHT22;1528;52.550;13.408;2024-02-23T11:12:09;12.20;15.00
3037;DHT22;1528;52.550;13.408;2024-02-23T11:14:57;12.50;14.90
3037;DHT22;1528;52.550;13.408;2024-02-23T11:17:50;12.60;14.70
3037;DHT22;1528;52.550;13.408;2024-02-23T11:20:37;12.60;14.90
3037;DHT22;1528;52.550;13.408;2024-02-23T11:23:22;12.50;14.80
3037;DHT22;1528;52.550;13.408;2024-02-23T11:26:11;12.60;14.70
3037;DHT22;1528;52.550;13.408;2024-02-23T11:28:57;12.50;14.60
3037;DHT22;1528;52.550;13.408;2024-02-23T11:31:46;12.40;15.20
3037;DHT22;1528;52.550;13.408;2024-02-23T11:34:34;12.30;15.10
3037;DHT22;1528;52.550;13.408;2024-02-23T11:37:20;12.30;14.50
3037;DHT22;1528;52.550;13.408;2024-02-23T11:40:07;12.30;14.90
3037;DHT22;1528;52.550;13.408;2024-02-23T11:42:56;12.30;15.00
3037;DHT22;1528;52.550;13.408;2024-02-23T11:45:41;12.40;15.10
3037;DHT22;1528;52.550;13.408;2024-02-23T11:48:27;12.40;15.10
3037;DHT22;1528;52.550;13.408;2024-02-23T11:51:13;12.50;15.10
3037;DHT22;1528;52.550;13.408;2024-02-23T11:54:00;12.50;15.00
3037;DHT22;1528;52.550;13.408;2024-02-23T11:56:46;12.40;14.30
3037;DHT22;1528;52.550;13.408;2024-02-23T11:59:34;12.40;15.00
3037;DHT22;1528;52.550;13.408;2024-02-23T12:02:19;12.40;14.60
3037;DHT22;1528;52.550;13.408;2024-02-23T12:05:05;12.50;14.40
3037;DHT22;1528;52.550;13.408;2024-02-23T12:07:51;12.50;13.80
3037;DHT22;1528;52.550;13.408;2024-02-23T12:10:37;12.40;13.70
3037;DHT22;1528;52.550;13.408;2024-02-23T12:13:23;12.30;14.10
3037;DHT22;1528;52.550;13.408;2024-02-23T12:16:10;12.20;14.10
3037;DHT22;1528;52.550;13.408;2024-02-23T12:18:55;12.20;15.40
3037;DHT22;1528;52.550;13.408;2024-02-23T12:21:45;12.30;14.60
3037;DHT22;1528;52.550;13.408;2024-02-23T12:24:30;12.30;14.60
3037;DHT22;1528;52.550;13.408;2024-02-23T12:27:17;12.30;14.50
3037;DHT22;1528;52.550;13.408;2024-02-23T12:33:46;12.30;14.50
3037;DHT22;1528;52.550;13.408;2024-02-23T12:36:35;12.30;14.20
3037;DHT22;1528;52.550;13.408;2024-02-23T12:39:21;12.20;15.00
3037;DHT22;1528;52.550;13.408;2024-02-23T12:42:06;12.20;14.70
3037;DHT22;1528;52.550;13.408;2024-02-23T12:44:52;12.20;14.60
3037;DHT22;1528;52.550;13.408;2024-02-23T12:47:38;12.30;14.20
3037;DHT22;1528;52.550;13.408;2024-02-23T12:50:25;12.30;13.70
3037;DHT22;1528;52.550;13.408;2024-02-23T12:53:11;12.20;13.60
3037;DHT22;1528;52.550;13.408;2024-02-23T12:56:14;12.30;13.20
3037;DHT22;1528;52.550;13.408;2024-02-23T12:59:01;12.30;13.40
3037;DHT22;1528;52.550;13.408;2024-02-23T13:01:47;12.30;13.60
3037;DHT22;1528;52.550;13.408;2024-02-23T13:04:33;12.20;14.10
3037;DHT22;1528;52.550;13.408;2024-02-23T13:07:20;12.10;13.90
3037;DHT22;1528;52.550;13.408;2024-02-23T13:10:06;12.00;14.00
3037;DHT22;1528;52.550;13.408;2024-02-23T13:13:02;12.00;14.10
3037;DHT22;1528;52.550;13.408;2024-02-23T13:15:50;11.90;14.40
3037;DHT22;1528;52.550;13.408;2024-02-23T13:18:36;11.90;14.80
3037;DHT22;1528;52.550;13.408;2024-02-23T13:21:21;11.90;14.40
3037;DHT22;1528;52.550;13.408;2024-02-23T13:24:09;11.90;14.80
3037;DHT22;1528;52.550;13.408;2024-02-23T13:26:55;12.00;15.00
3037;DHT22;1528;52.550;13.408;2024-02-23T13:29:40;12.00;15.10
3037;DHT22;1528;52.550;13.408;2024-02-23T13:32:25;11.90;15.00
3037;DHT22;1528;52.550;13.408;2024-02-23T13:35:11;12.00;15.10
3037;DHT22;1528;52.550;13.408;2024-02-23T13:37:58;12.00;14.80
3037;DHT22;1528;52.550;13.408;2024-02-23T13:40:48;11.90;14.90
3037;DHT22;1528;52.550;13.408;2024-02-23T13:43:34;11.80;15.10
3037;DHT22;1528;52.550;13.408;2024-02-23T13:46:20;11.80;15.40
3037;DHT22;1528;52.550;13.408;2024-02-23T13:49:06;11.70;15.60
3037;DHT22;1528;52.550;13.408;2024-02-23T13:51:52;11.60;15.60
3037;DHT22;1528;52.550;13.408;2024-02-23T13:54:38;11.60;15.40
3037;DHT22;1528;52.550;13.408;2024-02-23T13:57:25;11.60;15.50
3037;DHT22;1528;52.550;13.408;2024-02-23T14:00:12;11.60;15.80
3037;DHT22;1528;52.550;13.408;2024-02-23T14:02:58;11.60;15.80
3037;DHT22;1528;52.550;13.408;2024-02-23T14:05:44;11.60;15.90
3037;DHT22;1528;52.550;13.408;2024-02-23T14:08:30;11.70;16.00
3037;DHT22;1528;52.550;13.408;2024-02-23T14:11:18;11.70;16.20
3037;DHT22;1528;52.550;13.408;2024-02-23T14:14:05;11.60;15.90
3037;DHT22;1528;52.550;13.408;2024-02-23T14:16:52;11.60;16.00
3037;DHT22;1528;52.550;13.408;2024-02-23T14:19:38;11.60;16.30
3037;DHT22;1528;52.550;13.408;2024-02-23T14:22:23;11.60;16.30
3037;DHT22;1528;52.550;13.408;2024-02-23T14:25:09;11.60;16.40
3037;DHT22;1528;52.550;13.408;2024-02-23T14:27:55;11.50;15.60
3037;DHT22;1528;52.550;13.408;2024-02-23T14:30:41;11.40;15.60
3037;DHT22;1528;52.550;13.408;2024-02-23T14:33:27;11.30;15.60
3037;DHT22;1528;52.550;13.408;2024-02-23T14:36:13;11.30;15.80
3037;DHT22;1528;52.550;13.408;2024-02-23T14:38:59;11.20;15.10
3037;DHT22;1528;52.550;13.408;2024-02-23T14:41:44;11.20;14.70
3037;DHT22;1528;52.550;13.408;2024-02-23T14:44:30;11.10;14.90
3037;DHT22;1528;52.550;13.408;2024-02-23T14:47:17;11.10;15.40
3037;DHT22;1528;52.550;13.408;2024-02-23T14:50:03;11.10;15.60
3037;DHT22;1528;52.550;13.408;2024-02-23T14:52:49;11.00;15.80
3037;DHT22;1528;52.550;13.408;2024-02-23T14:55:35;11.00;15.60
3037;DHT22;1528;52.550;13.408;2024-02-23T14:58:20;11.00;15.70
3037;DHT22;1528;52.550;13.408;2024-02-23T15:01:06;11.00;15.90
3037;DHT22;1528;52.550;13.408;2024-02-23T15:03:54;11.00;16.30
3037;DHT22;1528;52.550;13.408;2024-02-23T15:06:39;11.00;16.30
3037;DHT22;1528;52.550;13.408;2024-02-23T15:09:25;11.00;16.10
3037;DHT22;1528;52.550;13.408;2024-02-23T15:12:11;10.90;16.20
3037;DHT22;1528;52.550;13.408;2024-02-23T15:14:58;10.90;16.40
3037;DHT22;1528;52.550;13.408;2024-02-23T15:17:43;10.90;16.40
3037;DHT22;1528;52.550;13.408;2024-02-23T15:20:33;11.00;16.70
3037;DHT22;1528;52.550;13.408;2024-02-23T15:23:18;10.90;16.70
3037;DHT22;1528;52.550;13.408;2024-02-23T15:26:06;10.90;16.80
3037;DHT22;1528;52.550;13.408;2024-02-23T15:28:51;10.90;16.90
3037;DHT22;1528;52.550;13.408;2024-02-23T15:31:38;10.90;17.00
3037;DHT22;1528;52.550;13.408;2024-02-23T15:34:24;10.80;17.10
3037;DHT22;1528;52.550;13.408;2024-02-23T15:37:11;10.80;17.40
3037;DHT22;1528;52.550;13.408;2024-02-23T15:39:57;10.80;17.40
3037;DHT22;1528;52.550;13.408;2024-02-23T15:42:42;10.70;17.60
3037;DHT22;1528;52.550;13.408;2024-02-23T15:45:28;10.60;17.80
3037;DHT22;1528;52.550;13.408;2024-02-23T15:48:13;10.60;18.00
3037;DHT22;1528;52.550;13.408;2024-02-23T15:50:59;10.50;18.00
3037;DHT22;1528;52.550;13.408;2024-02-23T15:53:46;10.50;18.20
3037;DHT22;1528;52.550;13.408;2024-02-23T15:56:32;10.50;17.90
3037;DHT22;1528;52.550;13.408;2024-02-23T15:59:17;10.40;17.80
3037;DHT22;1528;52.550;13.408;2024-02-23T16:02:04;10.50;18.40
3037;DHT22;1528;52.550;13.408;2024-02-23T16:04:51;10.40;17.90
3037;DHT22;1528;52.550;13.408;2024-02-23T16:07:36;10.40;18.50
3037;DHT22;1528;52.550;13.408;2024-02-23T16:10:23;10.30;17.80
3037;DHT22;1528;52.550;13.408;2024-02-23T16:13:09;10.30;17.90
3037;DHT22;1528;52.550;13.408;2024-02-23T16:15:54;10.30;18.20
3037;DHT22;1528;52.550;13.408;2024-02-23T16:18:40;10.30;18.70
3037;DHT22;1528;52.550;13.408;2024-02-23T16:21:26;10.20;18.20
3037;DHT22;1528;52.550;13.408;2024-02-23T16:24:11;10.20;18.30
3037;DHT22;1528;52.550;13.408;2024-02-23T16:26:58;10.20;18.40
3037;DHT22;1528;52.550;13.408;2024-02-23T16:29:43;10.10;18.50
3037;DHT22;1528;52.550;13.408;2024-02-23T16:32:29;10.00;18.60
3037;DHT22;1528;52.550;13.408;2024-02-23T16:35:14;10.00;19.00
3037;DHT22;1528;52.550;13.408;2024-02-23T16:38:03;9.90;19.70
3037;DHT22;1528;52.550;13.408;2024-02-23T16:40:48;9.90;19.80
3037;DHT22;1528;52.550;13.408;2024-02-23T16:43:35;9.90;20.00
3037;DHT22;1528;52.550;13.408;2024-02-23T16:46:20;9.90;20.80
3037;DHT22;1528;52.550;13.408;2024-02-23T16:49:06;9.80;20.30
3037;DHT22;1528;52.550;13.408;2024-02-23T16:51:52;9.70;20.50
3037;DHT22;1528;52.550;13.408;2024-02-23T16:54:38;9.70;20.70
3037;DHT22;1528;52.550;13.408;2024-02-23T16:57:25;9.70;20.70
3037;DHT22;1528;52.550;13.408;2024-02-23T17:00:13;9.70;20.90
3037;DHT22;1528;52.550;13.408;2024-02-23T17:02:58;9.60;20.70
3037;DHT22;1528;52.550;13.408;2024-02-23T17:05:45;9.60;21.40
3037;DHT22;1528;52.550;13.408;2024-02-23T17:08:31;9.60;20.80
3037;DHT22;1528;52.550;13.408;2024-02-23T17:11:16;9.60;20.80
3037;DHT22;1528;52.550;13.408;2024-02-23T17:14:02;9.60;20.90
3037;DHT22;1528;52.550;13.408;2024-02-23T17:16:50;9.50;21.40
3037;DHT22;1528;52.550;13.408;2024-02-23T17:19:36;9.60;20.90
3037;DHT22;1528;52.550;13.408;2024-02-23T17:22:23;9.60;21.10
3037;DHT22;1528;52.550;13.408;2024-02-23T17:25:08;9.50;21.10
3037;DHT22;1528;52.550;13.408;2024-02-23T17:27:54;9.60;21.00
3037;DHT22;1528;52.550;13.408;2024-02-23T17:30:41;9.60;21.00
3037;DHT22;1528;52.550;13.408;2024-02-23T17:33:27;9.50;21.00
3037;DHT22;1528;52.550;13.408;2024-02-23T17:36:13;9.50;21.10
3037;DHT22;1528;52.550;13.408;2024-02-23T17:38:58;9.50;21.20
3037;DHT22;1528;52.550;13.408;2024-02-23T17:41:44;9.50;21.20
3037;DHT22;1528;52.550;13.408;2024-02-23T17:44:29;9.50;21.40
3037;DHT22;1528;52.550;13.408;2024-02-23T17:47:15;9.40;21.40
3037;DHT22;1528;52.550;13.408;2024-02-23T17:50:03;9.40;21.50
3037;DHT22;1528;52.550;13.408;2024-02-23T17:52:49;9.40;21.50
3037;DHT22;1528;52.550;13.408;2024-02-23T17:55:34;9.40;21.70